< < Back
Terminal Aerodrome Forecast


Current Version              Previous Versions:   1  2  3  4  5  6  7  8  9  

Terminal Aerodrome Forecast

028
FTUS42 KILM 211100
TAFILM
TAF
KILM 211120Z 2112/2212 36012KT P6SM OVC015
     FM211400 34012G18KT P6SM SCT035 SCT080
     FM211700 36012KT P6SM FEW035 SCT060
     FM212300 02008KT P6SM FEW025=

Latest METAR

493
SAUS70 KWBC 211200 RRA
MTRILM
METAR KILM 211153Z AUTO 35012KT 10SM OVC015 11/07 A3006 RMK AO2 SLP180
70016 T01110072 10122 20106 51009


USA.gov is the U.S. government's official web portal to all federal, state and local government web resources and services.